Ottawa Macdonald-Cartier International Airport
CYOW : now visible

Airfield :











YOU CAN JOIN US ON...

 
LOGIN :

Register | Disclaimer

   EN    FR    IT 

 









Legend :    VFR   Marginal VFR   IFR   Intensive IFR   Very Intensive IFR
Visi :
Ceiling :
>= 8 km
>= 3000ft
5 to 8 km
1000 to 3000 ft
1500m to 5 km
500 to 1000 ft
800 to 1500m
200 to 500 ft
< 800m
< 200 ft
Symbols :   Thunderstorms  Fog  Heavy snow  Heavy precipitations  Wind > 20 kt







- Airport Elevation : 374 ft
- IATA code : YOW


CYOW - Ottawa Macdonald-Cartier International

CURRENT METAR :
  • 181000Z 07013G19KT 15SM FEW180 FEW250 16/11 A3000 RMK AC1CI2 AC TR SLP159 DENSITY ALT 600FT

EXPIRED METARs :
  • 180900Z 05011KT 15SM FEW250 17/11 A3000 RMK CI2 SLP160 DENSITY ALT 600FT
  • 180800Z 05008KT 15SM FEW030 16/12 A2998 RMK FU1 FU TR SLP155 DENSITY ALT 500FT

TAF TAF CYOW
Valid from the 18 at 09:00 until the 19 at 06:00 UTC


180838Z 1809/1906 04010KT P6SM BKN280
BECMG 1813/1815 09010KT
FM190000 12006KT P6SM BKN280 RMK NXT FCST BY 181200Z
CZUL FIR / North America



MET'MAP, your aeronautical weather chart ! - Copyright ORBIFLY December 2007 - Disclaimer

ORBIFLY MET'MAP TEAM :

Programming & Development : Alexandra Zaïnal
Concept & Development : Baudouin d'Aumeries
Co-Development & Prog : Marc-Olivier Méhu
Technical & hardware support : Manuel Goepfert

Contact : metmap@orbifly.com




SOURCES & CREDITS :

   NOAA       Earth
Advisory